sensor_id;sensor_type;location;lat;lon;timestamp;temperature;humidity
52731;DHT22;38624;53.242;6.974;2022-08-25T00:01:11;21.40;99.90
52731;DHT22;38624;53.242;6.974;2022-08-25T00:03:42;21.40;99.90
52731;DHT22;38624;53.242;6.974;2022-08-25T00:06:09;21.40;99.90
52731;DHT22;38624;53.242;6.974;2022-08-25T00:08:35;21.30;99.90
52731;DHT22;38624;53.242;6.974;2022-08-25T00:11:12;21.30;99.90
52731;DHT22;38624;53.242;6.974;2022-08-25T00:13:40;21.20;99.90
52731;DHT22;38624;53.242;6.974;2022-08-25T00:16:09;21.20;99.90
52731;DHT22;38624;53.242;6.974;2022-08-25T00:18:37;21.20;99.90
52731;DHT22;38624;53.242;6.974;2022-08-25T00:21:03;21.10;99.90
52731;DHT22;38624;53.242;6.974;2022-08-25T00:23:29;21.10;99.90
52731;DHT22;38624;53.242;6.974;2022-08-25T00:25:55;21.10;99.90
52731;DHT22;38624;53.242;6.974;2022-08-25T00:28:20;21.00;99.90
52731;DHT22;38624;53.242;6.974;2022-08-25T00:30:46;21.00;99.90
52731;DHT22;38624;53.242;6.974;2022-08-25T00:33:14;20.90;99.90
52731;DHT22;38624;53.242;6.974;2022-08-25T00:35:40;20.90;99.90
52731;DHT22;38624;53.242;6.974;2022-08-25T00:38:08;20.90;99.90
52731;DHT22;38624;53.242;6.974;2022-08-25T00:40:35;20.90;99.90
52731;DHT22;38624;53.242;6.974;2022-08-25T00:43:01;20.80;99.90
52731;DHT22;38624;53.242;6.974;2022-08-25T00:45:27;20.80;99.90
52731;DHT22;38624;53.242;6.974;2022-08-25T00:47:53;20.80;99.90
52731;DHT22;38624;53.242;6.974;2022-08-25T00:50:20;20.70;99.90
52731;DHT22;38624;53.242;6.974;2022-08-25T00:52:49;20.70;99.90
52731;DHT22;38624;53.242;6.974;2022-08-25T00:55:22;20.70;99.90
52731;DHT22;38624;53.242;6.974;2022-08-25T00:57:57;20.60;99.90
52731;DHT22;38624;53.242;6.974;2022-08-25T01:00:30;20.60;99.90
52731;DHT22;38624;53.242;6.974;2022-08-25T01:02:56;20.50;99.90
52731;DHT22;38624;53.242;6.974;2022-08-25T01:05:23;20.50;99.90
52731;DHT22;38624;53.242;6.974;2022-08-25T01:07:50;20.50;99.90
52731;DHT22;38624;53.242;6.974;2022-08-25T01:10:17;20.50;99.90
52731;DHT22;38624;53.242;6.974;2022-08-25T01:12:43;20.50;99.90
52731;DHT22;38624;53.242;6.974;2022-08-25T01:15:11;20.40;99.90
52731;DHT22;38624;53.242;6.974;2022-08-25T01:17:56;20.40;99.90
52731;DHT22;38624;53.242;6.974;2022-08-25T01:20:24;20.40;99.90
52731;DHT22;38624;53.242;6.974;2022-08-25T01:22:51;20.40;99.90
52731;DHT22;38624;53.242;6.974;2022-08-25T01:25:32;20.40;99.90
52731;DHT22;38624;53.242;6.974;2022-08-25T01:28:00;20.30;99.90
52731;DHT22;38624;53.242;6.974;2022-08-25T01:30:26;20.30;99.90
52731;DHT22;38624;53.242;6.974;2022-08-25T01:32:52;20.30;99.90
52731;DHT22;38624;53.242;6.974;2022-08-25T01:35:18;20.30;99.90
52731;DHT22;38624;53.242;6.974;2022-08-25T01:37:44;20.20;99.90
52731;DHT22;38624;53.242;6.974;2022-08-25T01:40:10;20.20;99.90
52731;DHT22;38624;53.242;6.974;2022-08-25T01:42:37;20.20;99.90
52731;DHT22;38624;53.242;6.974;2022-08-25T01:45:07;20.10;99.90
52731;DHT22;38624;53.242;6.974;2022-08-25T01:47:33;20.10;99.90
52731;DHT22;38624;53.242;6.974;2022-08-25T01:49:58;20.10;99.90
52731;DHT22;38624;53.242;6.974;2022-08-25T01:52:31;20.00;99.90
52731;DHT22;38624;53.242;6.974;2022-08-25T01:54:57;20.00;99.90
52731;DHT22;38624;53.242;6.974;2022-08-25T01:57:23;19.90;99.90
52731;DHT22;38624;53.242;6.974;2022-08-25T01:59:49;20.00;99.90
52731;DHT22;38624;53.242;6.974;2022-08-25T02:02:15;20.00;99.90
52731;DHT22;38624;53.242;6.974;2022-08-25T02:04:40;20.00;99.90
52731;DHT22;38624;53.242;6.974;2022-08-25T02:07:07;19.90;99.90
52731;DHT22;38624;53.242;6.974;2022-08-25T02:09:35;19.90;99.90
52731;DHT22;38624;53.242;6.974;2022-08-25T02:12:01;19.80;99.90
52731;DHT22;38624;53.242;6.974;2022-08-25T02:14:27;19.80;99.90
52731;DHT22;38624;53.242;6.974;2022-08-25T02:16:53;19.80;99.90
52731;DHT22;38624;53.242;6.974;2022-08-25T02:19:20;19.80;99.90
52731;DHT22;38624;53.242;6.974;2022-08-25T02:21:46;19.80;99.90
52731;DHT22;38624;53.242;6.974;2022-08-25T02:24:12;19.80;99.90
52731;DHT22;38624;53.242;6.974;2022-08-25T02:26:38;19.80;99.90
52731;DHT22;38624;53.242;6.974;2022-08-25T02:29:05;19.70;99.90
52731;DHT22;38624;53.242;6.974;2022-08-25T02:31:32;19.70;99.90
52731;DHT22;38624;53.242;6.974;2022-08-25T02:33:57;19.70;99.90
52731;DHT22;38624;53.242;6.974;2022-08-25T02:36:23;19.60;99.90
52731;DHT22;38624;53.242;6.974;2022-08-25T02:38:50;19.60;99.90
52731;DHT22;38624;53.242;6.974;2022-08-25T02:41:18;19.60;99.90
52731;DHT22;38624;53.242;6.974;2022-08-25T02:43:45;19.60;99.90
52731;DHT22;38624;53.242;6.974;2022-08-25T02:46:14;19.60;99.90
52731;DHT22;38624;53.242;6.974;2022-08-25T02:48:40;19.50;99.90
52731;DHT22;38624;53.242;6.974;2022-08-25T02:51:07;19.50;99.90
52731;DHT22;38624;53.242;6.974;2022-08-25T02:53:35;19.50;99.90
52731;DHT22;38624;53.242;6.974;2022-08-25T02:56:05;19.50;99.90
52731;DHT22;38624;53.242;6.974;2022-08-25T02:58:32;19.50;99.90
52731;DHT22;38624;53.242;6.974;2022-08-25T03:00:57;19.40;99.90
52731;DHT22;38624;53.242;6.974;2022-08-25T03:03:23;19.40;99.90
52731;DHT22;38624;53.242;6.974;2022-08-25T03:05:49;19.30;99.90
52731;DHT22;38624;53.242;6.974;2022-08-25T03:08:15;19.30;99.90
52731;DHT22;38624;53.242;6.974;2022-08-25T03:10:40;19.30;99.90
52731;DHT22;38624;53.242;6.974;2022-08-25T03:13:06;19.20;99.90
52731;DHT22;38624;53.242;6.974;2022-08-25T03:15:32;19.20;99.90
52731;DHT22;38624;53.242;6.974;2022-08-25T03:17:58;19.20;99.90
52731;DHT22;38624;53.242;6.974;2022-08-25T03:20:24;19.20;99.90
52731;DHT22;38624;53.242;6.974;2022-08-25T03:22:52;19.10;99.90
52731;DHT22;38624;53.242;6.974;2022-08-25T03:25:18;19.10;99.90
52731;DHT22;38624;53.242;6.974;2022-08-25T03:28:13;19.10;99.90
52731;DHT22;38624;53.242;6.974;2022-08-25T03:30:39;19.00;99.90
52731;DHT22;38624;53.242;6.974;2022-08-25T03:33:05;19.00;99.90
52731;DHT22;38624;53.242;6.974;2022-08-25T03:35:30;19.00;99.90
52731;DHT22;38624;53.242;6.974;2022-08-25T03:37:57;19.00;99.90
52731;DHT22;38624;53.242;6.974;2022-08-25T03:40:23;19.00;99.90
52731;DHT22;38624;53.242;6.974;2022-08-25T03:42:49;18.90;99.90
52731;DHT22;38624;53.242;6.974;2022-08-25T03:45:16;18.90;99.90
52731;DHT22;38624;53.242;6.974;2022-08-25T03:47:45;18.90;99.90
52731;DHT22;38624;53.242;6.974;2022-08-25T03:50:11;18.80;99.90
52731;DHT22;38624;53.242;6.974;2022-08-25T03:52:38;18.70;99.90
52731;DHT22;38624;53.242;6.974;2022-08-25T03:55:07;18.70;99.90
52731;DHT22;38624;53.242;6.974;2022-08-25T03:57:33;18.70;99.90
52731;DHT22;38624;53.242;6.974;2022-08-25T03:59:59;18.70;99.90
52731;DHT22;38624;53.242;6.974;2022-08-25T04:02:25;18.70;99.90
52731;DHT22;38624;53.242;6.974;2022-08-25T04:04:51;18.70;99.90
52731;DHT22;38624;53.242;6.974;2022-08-25T04:07:17;18.70;99.90
52731;DHT22;38624;53.242;6.974;2022-08-25T04:09:42;18.70;99.90
52731;DHT22;38624;53.242;6.974;2022-08-25T04:12:08;18.60;99.90
52731;DHT22;38624;53.242;6.974;2022-08-25T04:14:34;18.60;99.90
52731;DHT22;38624;53.242;6.974;2022-08-25T04:16:59;18.60;99.90
52731;DHT22;38624;53.242;6.974;2022-08-25T04:19:25;18.60;99.90
52731;DHT22;38624;53.242;6.974;2022-08-25T04:21:51;18.60;99.90
52731;DHT22;38624;53.242;6.974;2022-08-25T04:24:17;18.60;99.90
52731;DHT22;38624;53.242;6.974;2022-08-25T04:26:48;18.60;99.90
52731;DHT22;38624;53.242;6.974;2022-08-25T04:29:18;18.60;99.90
52731;DHT22;38624;53.242;6.974;2022-08-25T04:31:45;18.50;99.90
52731;DHT22;38624;53.242;6.974;2022-08-25T04:34:12;18.50;99.90
52731;DHT22;38624;53.242;6.974;2022-08-25T04:36:38;18.50;99.90
52731;DHT22;38624;53.242;6.974;2022-08-25T04:39:04;18.50;99.90
52731;DHT22;38624;53.242;6.974;2022-08-25T04:41:30;18.50;99.90
52731;DHT22;38624;53.242;6.974;2022-08-25T04:43:57;18.50;99.90
52731;DHT22;38624;53.242;6.974;2022-08-25T04:46:26;18.50;99.90
52731;DHT22;38624;53.242;6.974;2022-08-25T04:48:53;18.50;99.90
52731;DHT22;38624;53.242;6.974;2022-08-25T04:51:23;18.50;99.90
52731;DHT22;38624;53.242;6.974;2022-08-25T04:53:51;18.50;99.90
52731;DHT22;38624;53.242;6.974;2022-08-25T04:56:19;18.50;99.90
52731;DHT22;38624;53.242;6.974;2022-08-25T04:58:45;18.50;99.90
52731;DHT22;38624;53.242;6.974;2022-08-25T05:01:16;18.40;99.90
52731;DHT22;38624;53.242;6.974;2022-08-25T05:03:44;18.40;99.90
52731;DHT22;38624;53.242;6.974;2022-08-25T05:06:10;18.50;99.90
52731;DHT22;38624;53.242;6.974;2022-08-25T05:08:36;18.50;99.90
52731;DHT22;38624;53.242;6.974;2022-08-25T05:11:10;18.50;99.90
52731;DHT22;38624;53.242;6.974;2022-08-25T05:13:37;18.50;99.90
52731;DHT22;38624;53.242;6.974;2022-08-25T05:16:04;18.50;99.90
52731;DHT22;38624;53.242;6.974;2022-08-25T05:18:30;18.50;99.90
52731;DHT22;38624;53.242;6.974;2022-08-25T05:21:01;18.60;99.90
52731;DHT22;38624;53.242;6.974;2022-08-25T05:23:27;18.60;99.90
52731;DHT22;38624;53.242;6.974;2022-08-25T05:25:52;18.70;99.90
52731;DHT22;38624;53.242;6.974;2022-08-25T05:28:19;18.70;99.90
52731;DHT22;38624;53.242;6.974;2022-08-25T05:30:45;18.80;99.90
52731;DHT22;38624;53.242;6.974;2022-08-25T05:33:13;18.80;99.90
52731;DHT22;38624;53.242;6.974;2022-08-25T05:35:40;18.80;99.90
52731;DHT22;38624;53.242;6.974;2022-08-25T05:38:06;18.90;99.90
52731;DHT22;38624;53.242;6.974;2022-08-25T05:40:34;19.00;99.90
52731;DHT22;38624;53.242;6.974;2022-08-25T05:42:59;19.00;99.90
52731;DHT22;38624;53.242;6.974;2022-08-25T05:45:25;19.10;99.90
52731;DHT22;38624;53.242;6.974;2022-08-25T05:47:51;19.10;99.90
52731;DHT22;38624;53.242;6.974;2022-08-25T05:50:17;19.20;99.90
52731;DHT22;38624;53.242;6.974;2022-08-25T05:52:43;19.30;99.90
52731;DHT22;38624;53.242;6.974;2022-08-25T05:55:09;19.40;99.90
52731;DHT22;38624;53.242;6.974;2022-08-25T05:57:36;19.40;99.90
52731;DHT22;38624;53.242;6.974;2022-08-25T06:00:03;19.50;99.90
52731;DHT22;38624;53.242;6.974;2022-08-25T06:02:29;19.60;99.90
52731;DHT22;38624;53.242;6.974;2022-08-25T06:05:14;19.60;99.90
52731;DHT22;38624;53.242;6.974;2022-08-25T06:07:41;19.70;99.90
52731;DHT22;38624;53.242;6.974;2022-08-25T06:10:07;19.80;99.90
52731;DHT22;38624;53.242;6.974;2022-08-25T06:12:36;19.80;99.90
52731;DHT22;38624;53.242;6.974;2022-08-25T06:15:03;19.90;99.90
52731;DHT22;38624;53.242;6.974;2022-08-25T06:17:29;20.00;99.90
52731;DHT22;38624;53.242;6.974;2022-08-25T06:19:55;20.10;99.90
52731;DHT22;38624;53.242;6.974;2022-08-25T06:22:21;20.10;99.90
52731;DHT22;38624;53.242;6.974;2022-08-25T06:24:47;20.20;99.90
52731;DHT22;38624;53.242;6.974;2022-08-25T06:27:13;20.30;99.90
52731;DHT22;38624;53.242;6.974;2022-08-25T06:29:39;20.40;99.90
52731;DHT22;38624;53.242;6.974;2022-08-25T06:32:05;20.50;99.90
52731;DHT22;38624;53.242;6.974;2022-08-25T06:34:31;20.60;99.90
52731;DHT22;38624;53.242;6.974;2022-08-25T06:36:57;20.70;99.90
52731;DHT22;38624;53.242;6.974;2022-08-25T06:39:22;20.70;99.90
52731;DHT22;38624;53.242;6.974;2022-08-25T06:41:55;20.80;99.90
52731;DHT22;38624;53.242;6.974;2022-08-25T06:44:22;20.90;99.90
52731;DHT22;38624;53.242;6.974;2022-08-25T06:46:48;21.00;99.90
52731;DHT22;38624;53.242;6.974;2022-08-25T06:49:14;21.10;99.90
52731;DHT22;38624;53.242;6.974;2022-08-25T06:51:40;21.20;99.90
52731;DHT22;38624;53.242;6.974;2022-08-25T06:54:07;21.30;99.90
52731;DHT22;38624;53.242;6.974;2022-08-25T06:56:35;21.50;99.90
52731;DHT22;38624;53.242;6.974;2022-08-25T06:59:02;21.40;99.90
52731;DHT22;38624;53.242;6.974;2022-08-25T07:01:28;21.60;99.90
52731;DHT22;38624;53.242;6.974;2022-08-25T07:03:57;21.70;99.90
52731;DHT22;38624;53.242;6.974;2022-08-25T07:06:25;21.70;99.90
52731;DHT22;38624;53.242;6.974;2022-08-25T07:08:52;21.80;99.90
52731;DHT22;38624;53.242;6.974;2022-08-25T07:11:18;21.90;99.90
52731;DHT22;38624;53.242;6.974;2022-08-25T07:13:46;22.00;99.90
52731;DHT22;38624;53.242;6.974;2022-08-25T07:16:13;22.10;99.90
52731;DHT22;38624;53.242;6.974;2022-08-25T07:18:43;22.20;99.90
52731;DHT22;38624;53.242;6.974;2022-08-25T07:21:10;22.20;99.90
52731;DHT22;38624;53.242;6.974;2022-08-25T07:23:36;22.30;99.90
52731;DHT22;38624;53.242;6.974;2022-08-25T07:26:17;22.40;99.90
52731;DHT22;38624;53.242;6.974;2022-08-25T07:28:43;22.50;99.90
52731;DHT22;38624;53.242;6.974;2022-08-25T07:31:09;22.60;99.90
52731;DHT22;38624;53.242;6.974;2022-08-25T07:33:35;22.60;99.90
52731;DHT22;38624;53.242;6.974;2022-08-25T07:36:01;22.70;99.90
52731;DHT22;38624;53.242;6.974;2022-08-25T07:38:27;22.80;99.90
52731;DHT22;38624;53.242;6.974;2022-08-25T07:41:03;22.90;99.90
52731;DHT22;38624;53.242;6.974;2022-08-25T07:43:29;23.00;99.90
52731;DHT22;38624;53.242;6.974;2022-08-25T07:45:55;23.10;99.90
52731;DHT22;38624;53.242;6.974;2022-08-25T07:48:20;23.30;99.90
52731;DHT22;38624;53.242;6.974;2022-08-25T07:50:47;23.40;99.90
52731;DHT22;38624;53.242;6.974;2022-08-25T07:53:15;23.50;99.90
52731;DHT22;38624;53.242;6.974;2022-08-25T07:55:41;23.60;99.90
52731;DHT22;38624;53.242;6.974;2022-08-25T07:58:10;23.70;99.90
52731;DHT22;38624;53.242;6.974;2022-08-25T08:00:37;23.80;99.90
52731;DHT22;38624;53.242;6.974;2022-08-25T08:03:06;23.90;99.90
52731;DHT22;38624;53.242;6.974;2022-08-25T08:05:32;24.00;99.90
52731;DHT22;38624;53.242;6.974;2022-08-25T08:07:59;24.10;99.90
52731;DHT22;38624;53.242;6.974;2022-08-25T08:10:25;24.20;99.90
52731;DHT22;38624;53.242;6.974;2022-08-25T08:12:52;24.30;99.90
52731;DHT22;38624;53.242;6.974;2022-08-25T08:15:18;24.40;99.90
52731;DHT22;38624;53.242;6.974;2022-08-25T08:17:44;24.50;99.90
52731;DHT22;38624;53.242;6.974;2022-08-25T08:20:10;24.60;99.90
52731;DHT22;38624;53.242;6.974;2022-08-25T08:22:40;24.70;99.90
52731;DHT22;38624;53.242;6.974;2022-08-25T08:25:08;24.80;99.90
52731;DHT22;38624;53.242;6.974;2022-08-25T08:27:34;24.90;99.90
52731;DHT22;38624;53.242;6.974;2022-08-25T08:30:00;25.00;99.90
52731;DHT22;38624;53.242;6.974;2022-08-25T08:32:26;25.10;99.90
52731;DHT22;38624;53.242;6.974;2022-08-25T08:34:52;25.20;99.90
52731;DHT22;38624;53.242;6.974;2022-08-25T08:37:18;25.30;99.90
52731;DHT22;38624;53.242;6.974;2022-08-25T08:39:44;25.30;99.90
52731;DHT22;38624;53.242;6.974;2022-08-25T08:42:18;25.40;99.90
52731;DHT22;38624;53.242;6.974;2022-08-25T08:45:10;25.50;99.90
52731;DHT22;38624;53.242;6.974;2022-08-25T08:50:44;25.80;99.90
52731;DHT22;38624;53.242;6.974;2022-08-25T08:53:24;25.90;99.90
52731;DHT22;38624;53.242;6.974;2022-08-25T08:55:54;26.00;99.90
52731;DHT22;38624;53.242;6.974;2022-08-25T09:01:30;26.20;99.90
52731;DHT22;38624;53.242;6.974;2022-08-25T09:04:26;26.30;99.90
52731;DHT22;38624;53.242;6.974;2022-08-25T09:06:54;26.40;99.90
52731;DHT22;38624;53.242;6.974;2022-08-25T09:09:30;26.40;99.90
52731;DHT22;38624;53.242;6.974;2022-08-25T09:12:10;26.50;99.90
52731;DHT22;38624;53.242;6.974;2022-08-25T09:17:39;26.60;99.90
52731;DHT22;38624;53.242;6.974;2022-08-25T09:28:06;26.90;99.90
52731;DHT22;38624;53.242;6.974;2022-08-25T09:31:02;26.90;99.90
52731;DHT22;38624;53.242;6.974;2022-08-25T09:33:31;27.00;99.90
52731;DHT22;38624;53.242;6.974;2022-08-25T09:35:57;27.00;99.90
52731;DHT22;38624;53.242;6.974;2022-08-25T09:38:25;27.10;99.90
52731;DHT22;38624;53.242;6.974;2022-08-25T09:40:56;27.10;99.90
52731;DHT22;38624;53.242;6.974;2022-08-25T09:43:34;27.10;99.90
52731;DHT22;38624;53.242;6.974;2022-08-25T09:46:16;27.20;99.90
52731;DHT22;38624;53.242;6.974;2022-08-25T09:48:56;27.20;99.90
52731;DHT22;38624;53.242;6.974;2022-08-25T09:53:57;27.40;99.90
52731;DHT22;38624;53.242;6.974;2022-08-25T09:56:26;27.40;99.90
52731;DHT22;38624;53.242;6.974;2022-08-25T09:58:53;27.40;99.90
52731;DHT22;38624;53.242;6.974;2022-08-25T10:01:23;27.50;99.90
52731;DHT22;38624;53.242;6.974;2022-08-25T10:04:00;27.50;99.90
52731;DHT22;38624;53.242;6.974;2022-08-25T10:06:30;27.50;99.90
52731;DHT22;38624;53.242;6.974;2022-08-25T10:09:02;27.60;99.90
52731;DHT22;38624;53.242;6.974;2022-08-25T10:16:49;27.80;99.90
52731;DHT22;38624;53.242;6.974;2022-08-25T10:19:22;27.80;99.90
52731;DHT22;38624;53.242;6.974;2022-08-25T10:22:06;27.90;99.90
52731;DHT22;38624;53.242;6.974;2022-08-25T10:24:33;27.90;99.90
52731;DHT22;38624;53.242;6.974;2022-08-25T10:27:25;28.00;98.90
52731;DHT22;38624;53.242;6.974;2022-08-25T10:30:07;28.00;99.10
52731;DHT22;38624;53.242;6.974;2022-08-25T10:32:54;28.10;98.80
52731;DHT22;38624;53.242;6.974;2022-08-25T10:35:28;28.20;97.60
52731;DHT22;38624;53.242;6.974;2022-08-25T10:40:51;28.20;97.70
52731;DHT22;38624;53.242;6.974;2022-08-25T10:46:01;28.40;97.40
52731;DHT22;38624;53.242;6.974;2022-08-25T10:54:16;28.60;96.80
52731;DHT22;38624;53.242;6.974;2022-08-25T10:56:50;28.70;96.80
52731;DHT22;38624;53.242;6.974;2022-08-25T10:59:27;29.00;96.70
52731;DHT22;38624;53.242;6.974;2022-08-25T11:07:30;30.10;95.30
52731;DHT22;38624;53.242;6.974;2022-08-25T11:10:07;30.20;94.00
52731;DHT22;38624;53.242;6.974;2022-08-25T11:12:39;30.50;93.70
52731;DHT22;38624;53.242;6.974;2022-08-25T11:15:20;30.70;94.00
52731;DHT22;38624;53.242;6.974;2022-08-25T11:18:12;30.80;92.20
52731;DHT22;38624;53.242;6.974;2022-08-25T11:21:00;31.10;92.80
52731;DHT22;38624;53.242;6.974;2022-08-25T11:23:32;31.50;92.40
52731;DHT22;38624;53.242;6.974;2022-08-25T11:26:10;31.90;92.30
52731;DHT22;38624;53.242;6.974;2022-08-25T11:31:19;32.30;88.10
52731;DHT22;38624;53.242;6.974;2022-08-25T11:33:45;32.60;90.40
52731;DHT22;38624;53.242;6.974;2022-08-25T11:36:35;32.80;88.50
52731;DHT22;38624;53.242;6.974;2022-08-25T11:39:28;33.00;87.10
52731;DHT22;38624;53.242;6.974;2022-08-25T11:44:49;33.50;84.40
52731;DHT22;38624;53.242;6.974;2022-08-25T11:50:08;34.00;79.20
52731;DHT22;38624;53.242;6.974;2022-08-25T11:52:53;34.10;79.10
52731;DHT22;38624;53.242;6.974;2022-08-25T11:58:39;34.50;76.30
52731;DHT22;38624;53.242;6.974;2022-08-25T12:01:12;34.60;76.30
52731;DHT22;38624;53.242;6.974;2022-08-25T12:12:37;35.20;74.40
52731;DHT22;38624;53.242;6.974;2022-08-25T12:18:08;35.90;73.20
52731;DHT22;38624;53.242;6.974;2022-08-25T12:23:30;36.60;68.00
52731;DHT22;38624;53.242;6.974;2022-08-25T12:26:26;37.10;71.20
52731;DHT22;38624;53.242;6.974;2022-08-25T12:37:26;38.40;64.80
52731;DHT22;38624;53.242;6.974;2022-08-25T12:40:04;38.80;64.20
52731;DHT22;38624;53.242;6.974;2022-08-25T12:42:41;38.90;61.60
52731;DHT22;38624;53.242;6.974;2022-08-25T12:45:51;39.20;61.40
52731;DHT22;38624;53.242;6.974;2022-08-25T12:51:07;40.10;59.60
52731;DHT22;38624;53.242;6.974;2022-08-25T12:53:41;40.60;59.70
52731;DHT22;38624;53.242;6.974;2022-08-25T12:56:20;41.00;58.10
52731;DHT22;38624;53.242;6.974;2022-08-25T13:01:51;41.60;57.90
52731;DHT22;38624;53.242;6.974;2022-08-25T13:04:53;42.20;56.00
52731;DHT22;38624;53.242;6.974;2022-08-25T13:07:41;42.30;55.90
52731;DHT22;38624;53.242;6.974;2022-08-25T13:16:06;42.60;52.10
52731;DHT22;38624;53.242;6.974;2022-08-25T13:18:39;42.90;52.50
52731;DHT22;38624;53.242;6.974;2022-08-25T13:23:46;43.20;51.40
52731;DHT22;38624;53.242;6.974;2022-08-25T13:26:22;43.30;52.70
52731;DHT22;38624;53.242;6.974;2022-08-25T13:28:59;43.50;52.50
52731;DHT22;38624;53.242;6.974;2022-08-25T13:31:25;43.70;53.30
52731;DHT22;38624;53.242;6.974;2022-08-25T13:34:02;43.40;50.30
52731;DHT22;38624;53.242;6.974;2022-08-25T13:36:31;43.80;50.90
52731;DHT22;38624;53.242;6.974;2022-08-25T13:39:18;44.10;52.00
52731;DHT22;38624;53.242;6.974;2022-08-25T13:41:54;44.10;49.30
52731;DHT22;38624;53.242;6.974;2022-08-25T13:44:22;44.50;52.00
52731;DHT22;38624;53.242;6.974;2022-08-25T13:47:12;44.90;51.10
52731;DHT22;38624;53.242;6.974;2022-08-25T13:49:40;45.40;50.10
52731;DHT22;38624;53.242;6.974;2022-08-25T13:55:05;46.00;49.40
52731;DHT22;38624;53.242;6.974;2022-08-25T13:57:30;46.50;49.90
52731;DHT22;38624;53.242;6.974;2022-08-25T14:00:06;46.70;49.20
52731;DHT22;38624;53.242;6.974;2022-08-25T14:02:48;46.70;49.00
52731;DHT22;38624;53.242;6.974;2022-08-25T14:05:16;46.80;47.40
52731;DHT22;38624;53.242;6.974;2022-08-25T14:07:53;46.70;48.10
52731;DHT22;38624;53.242;6.974;2022-08-25T14:10:39;46.60;46.10
52731;DHT22;38624;53.242;6.974;2022-08-25T14:13:28;45.90;45.40
52731;DHT22;38624;53.242;6.974;2022-08-25T14:15:54;45.90;46.70
52731;DHT22;38624;53.242;6.974;2022-08-25T14:18:25;46.00;47.30
52731;DHT22;38624;53.242;6.974;2022-08-25T14:20:53;46.30;47.30
52731;DHT22;38624;53.242;6.974;2022-08-25T14:23:25;46.50;48.10
52731;DHT22;38624;53.242;6.974;2022-08-25T14:25:53;47.00;48.40
52731;DHT22;38624;53.242;6.974;2022-08-25T14:28:22;47.30;48.30
52731;DHT22;38624;53.242;6.974;2022-08-25T14:30:52;47.50;47.60
52731;DHT22;38624;53.242;6.974;2022-08-25T14:33:21;47.70;47.60
52731;DHT22;38624;53.242;6.974;2022-08-25T14:35:50;47.90;46.60
52731;DHT22;38624;53.242;6.974;2022-08-25T14:38:17;47.70;45.00
52731;DHT22;38624;53.242;6.974;2022-08-25T14:40:43;48.10;45.30
52731;DHT22;38624;53.242;6.974;2022-08-25T14:43:09;47.80;45.60
52731;DHT22;38624;53.242;6.974;2022-08-25T14:45:37;48.10;45.80
52731;DHT22;38624;53.242;6.974;2022-08-25T14:48:07;48.20;45.60
52731;DHT22;38624;53.242;6.974;2022-08-25T14:50:33;48.50;45.20
52731;DHT22;38624;53.242;6.974;2022-08-25T14:53:01;48.80;44.70
52731;DHT22;38624;53.242;6.974;2022-08-25T14:55:27;48.70;43.90
52731;DHT22;38624;53.242;6.974;2022-08-25T14:57:53;49.10;44.50
52731;DHT22;38624;53.242;6.974;2022-08-25T15:00:19;48.60;43.90
52731;DHT22;38624;53.242;6.974;2022-08-25T15:02:47;48.80;43.90
52731;DHT22;38624;53.242;6.974;2022-08-25T15:05:16;48.70;44.10
52731;DHT22;38624;53.242;6.974;2022-08-25T15:07:45;49.00;44.40
52731;DHT22;38624;53.242;6.974;2022-08-25T15:10:29;49.20;44.40
52731;DHT22;38624;53.242;6.974;2022-08-25T15:12:55;49.40;44.50
52731;DHT22;38624;53.242;6.974;2022-08-25T15:15:20;49.50;44.70
52731;DHT22;38624;53.242;6.974;2022-08-25T15:17:46;49.60;44.70
52731;DHT22;38624;53.242;6.974;2022-08-25T15:20:13;49.50;44.10
52731;DHT22;38624;53.242;6.974;2022-08-25T15:22:39;49.60;44.90
52731;DHT22;38624;53.242;6.974;2022-08-25T15:25:05;49.80;44.20
52731;DHT22;38624;53.242;6.974;2022-08-25T15:27:31;49.90;44.90
52731;DHT22;38624;53.242;6.974;2022-08-25T15:29:58;50.30;43.90
52731;DHT22;38624;53.242;6.974;2022-08-25T15:32:23;50.40;42.80
52731;DHT22;38624;53.242;6.974;2022-08-25T15:34:49;50.00;43.10
52731;DHT22;38624;53.242;6.974;2022-08-25T15:37:16;50.40;44.20
52731;DHT22;38624;53.242;6.974;2022-08-25T15:39:43;50.40;43.70
52731;DHT22;38624;53.242;6.974;2022-08-25T15:42:09;50.60;42.70
52731;DHT22;38624;53.242;6.974;2022-08-25T15:44:40;50.50;43.00
52731;DHT22;38624;53.242;6.974;2022-08-25T15:47:06;50.20;42.90
52731;DHT22;38624;53.242;6.974;2022-08-25T15:49:32;49.90;42.00
52731;DHT22;38624;53.242;6.974;2022-08-25T15:51:58;49.90;42.20
52731;DHT22;38624;53.242;6.974;2022-08-25T15:54:24;49.90;42.70
52731;DHT22;38624;53.242;6.974;2022-08-25T15:56:51;49.80;42.60
52731;DHT22;38624;53.242;6.974;2022-08-25T15:59:17;49.70;43.50
52731;DHT22;38624;53.242;6.974;2022-08-25T16:01:42;49.60;43.30
52731;DHT22;38624;53.242;6.974;2022-08-25T16:04:09;49.70;44.10
52731;DHT22;38624;53.242;6.974;2022-08-25T16:06:36;49.40;42.40
52731;DHT22;38624;53.242;6.974;2022-08-25T16:09:02;49.40;42.20
52731;DHT22;38624;53.242;6.974;2022-08-25T16:11:30;49.70;42.20
52731;DHT22;38624;53.242;6.974;2022-08-25T16:13:57;49.60;41.10
52731;DHT22;38624;53.242;6.974;2022-08-25T16:16:25;49.40;41.30
52731;DHT22;38624;53.242;6.974;2022-08-25T16:18:52;49.10;42.20
52731;DHT22;38624;53.242;6.974;2022-08-25T16:21:30;49.20;42.30
52731;DHT22;38624;53.242;6.974;2022-08-25T16:23:59;49.40;43.30
52731;DHT22;38624;53.242;6.974;2022-08-25T16:26:26;49.20;42.80
52731;DHT22;38624;53.242;6.974;2022-08-25T16:28:52;49.10;44.00
52731;DHT22;38624;53.242;6.974;2022-08-25T16:31:18;49.30;44.70
52731;DHT22;38624;53.242;6.974;2022-08-25T16:33:44;49.20;43.80
52731;DHT22;38624;53.242;6.974;2022-08-25T16:36:21;48.20;44.90
52731;DHT22;38624;53.242;6.974;2022-08-25T16:38:48;46.80;45.40
52731;DHT22;38624;53.242;6.974;2022-08-25T16:41:23;45.20;46.40
52731;DHT22;38624;53.242;6.974;2022-08-25T16:43:49;44.10;46.20
52731;DHT22;38624;53.242;6.974;2022-08-25T16:46:17;42.70;48.60
52731;DHT22;38624;53.242;6.974;2022-08-25T16:48:43;41.60;50.00
52731;DHT22;38624;53.242;6.974;2022-08-25T16:51:13;40.80;50.80
52731;DHT22;38624;53.242;6.974;2022-08-25T16:53:39;40.10;52.00
52731;DHT22;38624;53.242;6.974;2022-08-25T16:56:23;39.40;52.40
52731;DHT22;38624;53.242;6.974;2022-08-25T16:58:55;38.80;52.80
52731;DHT22;38624;53.242;6.974;2022-08-25T17:01:22;38.30;52.90
52731;DHT22;38624;53.242;6.974;2022-08-25T17:03:54;37.70;54.80
52731;DHT22;38624;53.242;6.974;2022-08-25T17:06:21;37.20;55.80
52731;DHT22;38624;53.242;6.974;2022-08-25T17:08:47;36.80;56.30
52731;DHT22;38624;53.242;6.974;2022-08-25T17:13:43;36.10;56.10
52731;DHT22;38624;53.242;6.974;2022-08-25T17:16:09;35.80;56.30
52731;DHT22;38624;53.242;6.974;2022-08-25T17:18:36;35.60;56.70
52731;DHT22;38624;53.242;6.974;2022-08-25T17:21:04;35.30;57.00